createdAt,value
2019-06-26T00:00:03.986Z,42
2019-06-26T00:01:03.829Z,43
2019-06-26T00:02:04.145Z,43
2019-06-26T00:03:03.511Z,43
2019-06-26T00:04:04.045Z,43
2019-06-26T00:05:03.567Z,43
2019-06-26T00:06:03.981Z,43
2019-06-26T00:07:03.283Z,43
2019-06-26T00:08:03.634Z,43
2019-06-26T00:09:04.253Z,43
2019-06-26T00:10:03.908Z,43
2019-06-26T00:11:04.296Z,43
2019-06-26T00:12:03.639Z,43
2019-06-26T00:13:03.911Z,43
2019-06-26T00:14:03.571Z,43
2019-06-26T00:15:04.055Z,43
2019-06-26T00:16:03.728Z,42
2019-06-26T00:17:04.063Z,43
2019-06-26T00:18:03.384Z,43
2019-06-26T00:19:03.698Z,43
2019-06-26T00:20:04.258Z,43
2019-06-26T00:21:03.655Z,43
2019-06-26T00:22:04.040Z,43
2019-06-26T00:23:03.384Z,43
2019-06-26T00:24:03.652Z,43
2019-06-26T00:25:03.486Z,43
2019-06-26T00:26:03.938Z,43
2019-06-26T00:27:03.286Z,43
2019-06-26T00:28:03.606Z,43
2019-06-26T00:29:03.890Z,43
2019-06-26T00:30:04.450Z,43
2019-06-26T00:31:03.807Z,43
2019-06-26T00:32:04.125Z,43
2019-06-26T00:33:03.500Z,43
2019-06-26T00:34:03.787Z,43
2019-06-26T00:35:04.356Z,43
2019-06-26T00:36:03.771Z,43
2019-06-26T00:37:04.104Z,43
2019-06-26T00:38:03.460Z,43
2019-06-26T00:39:03.931Z,43
2019-06-26T00:40:04.441Z,43
2019-06-26T00:41:03.358Z,43
2019-06-26T00:42:03.641Z,43
2019-06-26T00:43:03.915Z,43
2019-06-26T00:44:04.195Z,43
2019-06-26T00:45:03.608Z,43
2019-06-26T00:46:04.093Z,43
2019-06-26T00:47:03.420Z,43
2019-06-26T00:48:03.804Z,43
2019-06-26T00:49:03.241Z,43
2019-06-26T00:50:03.802Z,43
2019-06-26T00:51:03.355Z,43
2019-06-26T00:52:03.643Z,43
2019-06-26T00:53:04.057Z,43
2019-06-26T00:54:03.353Z,43
2019-06-26T00:55:03.993Z,43
2019-06-26T00:56:03.408Z,43
2019-06-26T00:57:03.745Z,43
2019-06-26T00:58:04.018Z,43
2019-06-26T00:59:03.307Z,43
2019-06-26T01:00:04.026Z,43
2019-06-26T01:01:03.854Z,43
2019-06-26T01:02:04.245Z,43
2019-06-26T01:03:03.531Z,43
2019-06-26T01:04:03.811Z,43
2019-06-26T01:05:04.252Z,43
2019-06-26T01:06:03.594Z,44
2019-06-26T01:07:03.938Z,44
2019-06-26T01:08:04.206Z,44
2019-06-26T01:09:03.623Z,44
2019-06-26T01:10:04.201Z,45
2019-06-26T01:11:03.559Z,45
2019-06-26T01:12:03.962Z,44
2019-06-26T01:13:03.332Z,44
2019-06-26T01:14:03.633Z,45
2019-06-26T01:15:04.120Z,44
2019-06-26T01:16:04.056Z,45
2019-06-26T01:17:03.429Z,45
2019-06-26T01:18:03.774Z,45
2019-06-26T01:19:04.108Z,45
2019-06-26T01:20:03.643Z,44
2019-06-26T01:21:03.990Z,45
2019-06-26T01:22:03.490Z,46
2019-06-26T01:23:03.845Z,45
2019-06-26T01:24:04.203Z,46
2019-06-26T01:25:03.674Z,46
2019-06-26T01:26:03.982Z,46
2019-06-26T01:27:03.347Z,45
2019-06-26T01:28:03.761Z,46
2019-06-26T01:29:04.050Z,46
2019-06-26T01:30:03.802Z,46
2019-06-26T01:31:03.350Z,46
2019-06-26T01:32:03.676Z,46
2019-06-26T01:33:04.003Z,46
2019-06-26T01:34:03.322Z,46
2019-06-26T01:35:03.780Z,46
2019-06-26T01:36:04.089Z,45
2019-06-26T01:37:03.351Z,46
2019-06-26T01:38:03.742Z,46
2019-06-26T01:39:04.191Z,46
2019-06-26T01:40:03.935Z,45
2019-06-26T01:41:03.296Z,46
2019-06-26T01:42:03.685Z,46
2019-06-26T01:43:04.154Z,46
2019-06-26T01:44:13.988Z,46
2019-06-26T01:45:04.214Z,46
2019-06-26T01:46:03.559Z,45
2019-06-26T01:47:03.820Z,46
2019-06-26T01:48:04.217Z,46
2019-06-26T01:49:03.543Z,46
2019-06-26T01:50:04.128Z,46
2019-06-26T01:51:03.558Z,46
2019-06-26T01:52:03.824Z,46
2019-06-26T01:53:04.203Z,46
2019-06-26T01:54:03.499Z,46
2019-06-26T01:55:03.987Z,46
2019-06-26T01:56:03.310Z,46
2019-06-26T01:57:03.608Z,46
2019-06-26T01:58:04.017Z,46
2019-06-26T01:59:03.376Z,45
2019-06-26T02:00:04.121Z,46
2019-06-26T02:01:03.518Z,45
2019-06-26T02:02:03.849Z,46
2019-06-26T02:03:04.224Z,46
2019-06-26T02:04:03.522Z,46
2019-06-26T02:05:04.005Z,46
2019-06-26T02:06:03.343Z,46
2019-06-26T02:07:03.733Z,46
2019-06-26T02:08:04.123Z,46
2019-06-26T02:09:03.723Z,46
2019-06-26T02:10:04.268Z,46
2019-06-26T02:11:03.537Z,46
2019-06-26T02:12:03.824Z,46
2019-06-26T02:13:04.330Z,46
2019-06-26T02:14:03.578Z,47
2019-06-26T02:15:04.023Z,46
2019-06-26T02:16:03.393Z,46
2019-06-26T02:17:03.710Z,46
2019-06-26T02:18:04.093Z,46
2019-06-26T02:19:03.407Z,46
2019-06-26T02:20:03.988Z,46
2019-06-26T02:21:03.348Z,47
2019-06-26T02:22:03.637Z,46
2019-06-26T02:23:03.952Z,47
2019-06-26T02:24:03.430Z,47
2019-06-26T02:25:03.892Z,47
2019-06-26T02:26:04.226Z,47
2019-06-26T02:27:03.500Z,47
2019-06-26T02:28:03.785Z,47
2019-06-26T02:29:04.113Z,48
2019-06-26T02:30:03.648Z,47
2019-06-26T02:31:03.775Z,47
2019-06-26T02:32:04.105Z,48
2019-06-26T02:33:03.474Z,48
2019-06-26T02:34:03.810Z,48
2019-06-26T02:35:09.009Z,49
2019-06-26T02:36:03.936Z,49
2019-06-26T02:37:03.264Z,48
2019-06-26T02:38:03.603Z,50
2019-06-26T02:39:04.192Z,49
2019-06-26T02:40:03.805Z,50
2019-06-26T02:41:03.409Z,50
2019-06-26T02:42:03.761Z,49
2019-06-26T02:43:06.918Z,49
2019-06-26T02:44:03.852Z,49
2019-06-26T02:45:04.395Z,49
2019-06-26T02:46:03.871Z,50
2019-06-26T02:47:17.994Z,50
2019-06-26T02:48:04.201Z,51
2019-06-26T02:49:03.554Z,50
2019-06-26T02:50:04.120Z,50
2019-06-26T02:51:03.517Z,50
2019-06-26T02:52:03.863Z,51
2019-06-26T02:53:04.202Z,51
2019-06-26T02:54:03.488Z,51
2019-06-26T02:55:03.966Z,52
2019-06-26T02:56:03.414Z,51
2019-06-26T02:57:03.722Z,52
2019-06-26T02:58:04.039Z,51
2019-06-26T02:59:03.463Z,51
2019-06-26T03:00:04.046Z,52
2019-06-26T03:01:03.546Z,52
2019-06-26T03:02:03.871Z,52
2019-06-26T03:03:04.191Z,51
2019-06-26T03:04:03.553Z,52
2019-06-26T03:05:04.029Z,52
2019-06-26T03:06:03.346Z,51
2019-06-26T03:07:03.631Z,52
2019-06-26T03:08:03.916Z,52
2019-06-26T03:09:04.395Z,52
2019-06-26T03:10:04.052Z,52
2019-06-26T03:11:03.436Z,52
2019-06-26T03:12:03.720Z,52
2019-06-26T03:13:03.993Z,53
2019-06-26T03:14:04.220Z,53
2019-06-26T03:15:08.620Z,52
2019-06-26T03:16:03.602Z,52
2019-06-26T03:17:03.884Z,53
2019-06-26T03:18:04.142Z,53
2019-06-26T03:19:03.433Z,52
2019-06-26T03:20:04.028Z,53
2019-06-26T03:21:03.414Z,52
2019-06-26T03:22:03.714Z,53
2019-06-26T03:23:04.004Z,53
2019-06-26T03:24:03.378Z,53
2019-06-26T03:25:03.975Z,53
2019-06-26T03:26:04.225Z,53
2019-06-26T03:27:03.508Z,53
2019-06-26T03:28:03.867Z,53
2019-06-26T03:29:04.128Z,53
2019-06-26T03:30:03.877Z,54
2019-06-26T03:31:03.384Z,53
2019-06-26T03:32:03.783Z,53
2019-06-26T03:33:04.134Z,53
2019-06-26T03:34:03.523Z,53
2019-06-26T03:35:04.178Z,53
2019-06-26T03:36:03.458Z,53
2019-06-26T03:37:03.767Z,53
2019-06-26T03:38:04.051Z,53
2019-06-26T03:39:03.568Z,52
2019-06-26T03:40:04.273Z,52
2019-06-26T03:41:03.652Z,52
2019-06-26T03:42:04.180Z,52
2019-06-26T03:43:03.446Z,52
2019-06-26T03:44:03.737Z,51
2019-06-26T03:45:04.428Z,52
2019-06-26T03:46:04.147Z,51
2019-06-26T03:47:03.561Z,51
2019-06-26T03:48:03.805Z,52
2019-06-26T03:49:04.101Z,51
2019-06-26T03:50:03.699Z,51
2019-06-26T03:51:04.266Z,50
2019-06-26T03:52:03.389Z,50
2019-06-26T03:53:03.721Z,50
2019-06-26T03:54:03.981Z,51
2019-06-26T03:55:04.404Z,50
2019-06-26T03:56:03.869Z,48
2019-06-26T03:57:03.307Z,49
2019-06-26T03:58:03.645Z,51
2019-06-26T03:59:04.025Z,50
2019-06-26T04:00:03.658Z,51
2019-06-26T04:01:03.468Z,48
2019-06-26T04:02:03.835Z,49
2019-06-26T04:03:04.054Z,49
2019-06-26T04:04:03.368Z,49
2019-06-26T04:05:03.771Z,51
2019-06-26T04:06:03.530Z,49
2019-06-26T04:07:03.928Z,50
2019-06-26T04:08:04.204Z,50
2019-06-26T04:09:03.611Z,49
2019-06-26T04:10:04.415Z,52
2019-06-26T04:11:04.854Z,48
2019-06-26T04:12:04.125Z,49
2019-06-26T04:13:03.433Z,49
2019-06-26T04:14:03.774Z,50
2019-06-26T04:15:04.291Z,49
2019-06-26T04:16:03.645Z,49
2019-06-26T04:17:03.926Z,50
2019-06-26T04:18:03.457Z,49
2019-06-26T04:19:03.732Z,49
2019-06-26T04:20:04.315Z,49
2019-06-26T04:21:03.740Z,49
2019-06-26T04:22:04.059Z,50
2019-06-26T04:23:03.316Z,50
2019-06-26T04:24:03.548Z,49
2019-06-26T04:25:04.037Z,50
2019-06-26T04:26:04.155Z,50
2019-06-26T04:27:03.482Z,50
2019-06-26T04:28:06.183Z,51
2019-06-26T04:29:03.901Z,50
2019-06-26T04:30:04.443Z,50
2019-06-26T04:31:04.048Z,49
2019-06-26T04:32:03.354Z,50
2019-06-26T04:33:03.665Z,51
2019-06-26T04:34:03.924Z,51
2019-06-26T04:35:04.272Z,50
2019-06-26T04:36:03.608Z,50
2019-06-26T04:37:04.057Z,51
2019-06-26T04:38:03.420Z,51
2019-06-26T04:39:03.872Z,51
2019-06-26T04:40:04.477Z,51
2019-06-26T04:41:03.862Z,50
2019-06-26T04:42:04.263Z,50
2019-06-26T04:43:03.556Z,50
2019-06-26T04:44:03.830Z,50
2019-06-26T04:45:04.308Z,50
2019-06-26T04:46:03.717Z,50
2019-06-26T04:47:04.213Z,50
2019-06-26T04:48:06.737Z,50
2019-06-26T04:49:03.815Z,50
2019-06-26T04:50:04.350Z,51
2019-06-26T04:51:03.663Z,50
2019-06-26T04:52:04.102Z,50
2019-06-26T04:53:03.384Z,51
2019-06-26T04:54:03.746Z,50
2019-06-26T04:55:04.254Z,50
2019-06-26T04:56:03.606Z,49
2019-06-26T04:57:04.042Z,50
2019-06-26T04:58:03.335Z,51
2019-06-26T04:59:03.630Z,50
2019-06-26T05:00:04.433Z,51
2019-06-26T05:01:03.702Z,50
2019-06-26T05:02:03.327Z,50
2019-06-26T05:03:03.751Z,48
2019-06-26T05:04:04.140Z,50
2019-06-26T05:05:03.624Z,50
2019-06-26T05:06:03.527Z,49
2019-06-26T05:07:03.779Z,49
2019-06-26T05:08:04.157Z,51
2019-06-26T05:09:03.629Z,49
2019-06-26T05:10:04.152Z,50
2019-06-26T05:11:03.482Z,48
2019-06-26T05:12:04.000Z,50
2019-06-26T05:13:03.361Z,49
2019-06-26T05:14:03.680Z,48
2019-06-26T05:15:04.172Z,48
2019-06-26T05:16:14.073Z,48
2019-06-26T05:17:03.422Z,50
2019-06-26T05:18:03.950Z,49
2019-06-26T05:19:04.217Z,48
2019-06-26T05:20:03.831Z,48
2019-06-26T05:21:03.327Z,48
2019-06-26T05:22:03.553Z,48
2019-06-26T05:23:03.883Z,49
2019-06-26T05:24:04.148Z,49
2019-06-26T05:25:03.546Z,48
2019-06-26T05:26:03.783Z,48
2019-06-26T05:27:04.039Z,49
2019-06-26T05:28:03.291Z,48
2019-06-26T05:29:04.218Z,49
2019-06-26T05:30:03.962Z,49
2019-06-26T05:31:04.239Z,49
2019-06-26T05:32:03.474Z,49
2019-06-26T05:33:03.794Z,49
2019-06-26T05:34:04.035Z,50
2019-06-26T05:35:03.710Z,49
2019-06-26T05:36:03.953Z,48
2019-06-26T05:37:04.222Z,48
2019-06-26T05:38:03.538Z,49
2019-06-26T05:39:03.746Z,49
2019-06-26T05:40:04.292Z,47
2019-06-26T05:41:03.452Z,48
2019-06-26T05:42:06.620Z,49
2019-06-26T05:43:03.372Z,48
2019-06-26T05:44:03.751Z,49
2019-06-26T05:45:04.362Z,48
2019-06-26T05:46:03.733Z,48
2019-06-26T05:47:06.907Z,48
2019-06-26T05:48:03.662Z,48
2019-06-26T05:49:03.942Z,49
2019-06-26T05:50:04.432Z,48
2019-06-26T05:51:03.325Z,48
2019-06-26T05:52:03.614Z,49
2019-06-26T05:53:03.910Z,49
2019-06-26T05:54:04.140Z,48
2019-06-26T05:55:03.624Z,48
2019-06-26T05:56:03.543Z,48
2019-06-26T05:57:03.809Z,50
2019-06-26T05:58:04.184Z,49
2019-06-26T05:59:03.483Z,50
2019-06-26T06:00:04.030Z,49
2019-06-26T06:01:03.453Z,48
2019-06-26T06:02:03.689Z,49
2019-06-26T06:03:03.915Z,50
2019-06-26T06:04:04.204Z,49
2019-06-26T06:05:03.823Z,48
2019-06-26T06:06:03.529Z,47
2019-06-26T06:07:03.734Z,48
2019-06-26T06:08:03.959Z,48
2019-06-26T06:09:04.260Z,48
2019-06-26T06:10:03.767Z,49
2019-06-26T06:11:03.803Z,48
2019-06-26T06:12:04.002Z,49
2019-06-26T06:13:04.180Z,49
2019-06-26T06:14:03.556Z,49
2019-06-26T06:15:04.085Z,51
2019-06-26T06:16:06.323Z,48
2019-06-26T06:17:04.233Z,49
2019-06-26T06:18:03.535Z,49
2019-06-26T06:19:03.853Z,48
2019-06-26T06:20:03.539Z,48
2019-06-26T06:21:03.770Z,48
2019-06-26T06:22:04.006Z,49
2019-06-26T06:23:03.251Z,49
2019-06-26T06:24:03.557Z,49
2019-06-26T06:25:04.066Z,50
2019-06-26T06:26:03.907Z,50
2019-06-26T06:27:04.100Z,48
2019-06-26T06:28:06.044Z,49
2019-06-26T06:29:05.419Z,48
2019-06-26T06:30:04.006Z,48
2019-06-26T06:32:06.683Z,48
2019-06-26T06:33:04.231Z,48
2019-06-26T06:34:06.410Z,48
2019-06-26T06:36:04.827Z,49
2019-06-26T06:37:04.122Z,47
2019-06-26T06:38:03.726Z,47
2019-06-26T06:39:04.108Z,47
2019-06-26T06:40:03.668Z,49
2019-06-26T06:41:03.581Z,47
2019-06-26T06:42:03.783Z,48
2019-06-26T06:43:06.323Z,47
2019-06-26T06:44:04.219Z,47
2019-06-26T06:45:03.581Z,48
2019-06-26T06:46:04.194Z,47
2019-06-26T06:47:04.491Z,47
2019-06-26T06:48:03.974Z,47
2019-06-26T06:49:03.230Z,47
2019-06-26T06:50:03.763Z,48
2019-06-26T06:51:03.462Z,47
2019-06-26T06:52:03.724Z,46
2019-06-26T06:53:03.911Z,47
2019-06-26T06:54:04.171Z,47
2019-06-26T06:55:03.550Z,47
2019-06-26T06:56:03.910Z,47
2019-06-26T06:57:04.166Z,47
2019-06-26T06:58:03.468Z,47
2019-06-26T06:59:03.845Z,47
2019-06-26T07:00:04.385Z,46
2019-06-26T07:01:04.235Z,46
2019-06-26T07:02:03.570Z,46
2019-06-26T07:03:03.823Z,46
2019-06-26T07:04:04.066Z,46
2019-06-26T07:05:03.476Z,47
2019-06-26T07:06:04.100Z,46
2019-06-26T07:07:03.315Z,46
2019-06-26T07:08:03.644Z,46
2019-06-26T07:09:03.995Z,46
2019-06-26T07:10:03.863Z,46
2019-06-26T07:11:04.248Z,45
2019-06-26T07:12:03.458Z,44
2019-06-26T07:13:03.511Z,45
2019-06-26T07:14:03.860Z,45
2019-06-26T07:15:03.502Z,45
2019-06-26T07:16:03.849Z,45
2019-06-26T07:17:19.181Z,43
2019-06-26T07:18:03.633Z,44
2019-06-26T07:19:03.905Z,43
2019-06-26T07:20:04.397Z,44
2019-06-26T07:21:03.748Z,44
2019-06-26T07:22:07.146Z,44
2019-06-26T07:23:03.970Z,44
2019-06-26T07:24:04.245Z,44
2019-06-26T07:25:03.664Z,45
2019-06-26T07:26:04.034Z,44
2019-06-26T07:27:03.852Z,43
2019-06-26T07:28:04.094Z,44
2019-06-26T07:29:03.529Z,44
2019-06-26T07:30:04.442Z,44
2019-06-26T07:31:03.645Z,45
2019-06-26T07:32:03.998Z,44
2019-06-26T07:33:03.352Z,43
2019-06-26T07:34:03.560Z,43
2019-06-26T07:35:03.968Z,44
2019-06-26T07:36:04.279Z,43
2019-06-26T07:37:03.507Z,44
2019-06-26T07:38:03.893Z,44
2019-06-26T07:39:04.301Z,43
2019-06-26T07:40:03.847Z,43
2019-06-26T07:41:04.146Z,43
2019-06-26T07:42:03.713Z,43
2019-06-26T07:43:04.112Z,43
2019-06-26T07:44:03.852Z,43
2019-06-26T07:45:04.303Z,43
2019-06-26T07:46:03.814Z,43
2019-06-26T07:47:12.569Z,43
2019-06-26T07:48:03.816Z,44
2019-06-26T07:49:04.150Z,43
2019-06-26T07:50:03.813Z,43
2019-06-26T07:51:04.130Z,43
2019-06-26T07:52:03.503Z,42
2019-06-26T07:53:03.738Z,42
2019-06-26T07:54:04.009Z,42
2019-06-26T07:55:03.380Z,42
2019-06-26T07:56:03.700Z,41
2019-06-26T07:57:03.298Z,42
2019-06-26T07:58:03.764Z,42
2019-06-26T07:59:03.363Z,42
2019-06-26T08:00:04.109Z,42
2019-06-26T08:01:03.350Z,41
2019-06-26T08:02:03.692Z,42
2019-06-26T08:03:04.594Z,42
2019-06-26T08:04:04.207Z,41
2019-06-26T08:05:03.588Z,42
2019-06-26T08:06:03.871Z,41
2019-06-26T08:07:03.350Z,42
2019-06-26T08:08:03.844Z,42
2019-06-26T08:09:06.896Z,41
2019-06-26T08:10:06.983Z,41
2019-06-26T08:11:07.177Z,41
2019-06-26T08:12:04.246Z,41
2019-06-26T08:13:03.801Z,41
2019-06-26T08:14:04.193Z,41
2019-06-26T08:15:03.767Z,41
2019-06-26T08:16:04.191Z,41
2019-06-26T08:17:03.750Z,41
2019-06-26T08:18:04.262Z,41
2019-06-26T08:19:03.631Z,41
2019-06-26T08:20:04.298Z,41
2019-06-26T08:21:11.856Z,41
2019-06-26T08:22:03.376Z,41
2019-06-26T08:23:03.673Z,41
2019-06-26T08:24:03.968Z,42
2019-06-26T08:25:04.384Z,41
2019-06-26T08:26:03.715Z,41
2019-06-26T08:27:04.071Z,41
2019-06-26T08:28:03.617Z,41
2019-06-26T08:29:04.064Z,40
2019-06-26T08:30:03.617Z,40
2019-06-26T08:31:04.116Z,39
2019-06-26T08:32:03.459Z,39
2019-06-26T08:33:03.829Z,40
2019-06-26T08:34:04.240Z,40
2019-06-26T08:35:03.714Z,40
2019-06-26T08:36:04.011Z,39
2019-06-26T08:37:03.481Z,40
2019-06-26T08:38:10.131Z,40
2019-06-26T08:39:03.916Z,39
2019-06-26T08:40:04.511Z,40
2019-06-26T08:41:03.815Z,40
2019-06-26T08:42:04.134Z,40
2019-06-26T08:43:03.500Z,40
2019-06-26T08:44:03.945Z,40
2019-06-26T08:45:04.300Z,40
2019-06-26T08:46:03.763Z,40
2019-06-26T08:47:04.129Z,40
2019-06-26T08:48:17.168Z,40
2019-06-26T08:49:03.544Z,40
2019-06-26T08:50:04.450Z,40
2019-06-26T08:51:03.861Z,40
2019-06-26T08:52:04.238Z,40
2019-06-26T08:53:03.584Z,40
2019-06-26T08:54:04.745Z,40
2019-06-26T08:55:03.598Z,39
2019-06-26T08:56:03.891Z,40
2019-06-26T08:57:03.314Z,40
2019-06-26T08:58:03.622Z,40
2019-06-26T08:59:04.033Z,40
2019-06-26T09:00:03.670Z,40
2019-06-26T09:01:03.715Z,39
2019-06-26T09:02:04.083Z,39
2019-06-26T09:03:03.419Z,39
2019-06-26T09:04:03.864Z,40
2019-06-26T09:05:04.294Z,39
2019-06-26T09:06:03.612Z,39
2019-06-26T09:07:04.001Z,39
2019-06-26T09:08:03.370Z,39
2019-06-26T09:09:04.174Z,40
2019-06-26T09:10:03.796Z,40
2019-06-26T09:11:04.181Z,40
2019-06-26T09:12:03.509Z,39
2019-06-26T09:13:03.802Z,40
2019-06-26T09:14:04.184Z,40
2019-06-26T09:15:03.664Z,40
2019-06-26T09:16:04.206Z,40
2019-06-26T09:17:03.529Z,39
2019-06-26T09:18:03.860Z,39
2019-06-26T09:19:04.147Z,38
2019-06-26T09:20:03.728Z,39
2019-06-26T09:21:03.962Z,38
2019-06-26T09:22:03.244Z,38
2019-06-26T09:23:03.617Z,39
2019-06-26T09:24:03.899Z,38
2019-06-26T09:25:20.086Z,38
2019-06-26T09:26:03.914Z,39
2019-06-26T09:27:04.346Z,38
2019-06-26T09:28:03.740Z,38
2019-06-26T09:29:04.167Z,39
2019-06-26T09:30:04.058Z,38
2019-06-26T09:31:03.583Z,38
2019-06-26T09:32:03.839Z,39
2019-06-26T09:33:03.305Z,38
2019-06-26T09:34:03.745Z,39
2019-06-26T09:35:04.230Z,39
2019-06-26T09:36:06.698Z,38
2019-06-26T09:37:03.623Z,38
2019-06-26T09:38:03.338Z,38
2019-06-26T09:39:03.920Z,38
2019-06-26T09:40:04.480Z,38
2019-06-26T09:41:03.833Z,38
2019-06-26T09:42:04.066Z,38
2019-06-26T09:43:03.420Z,38
2019-06-26T09:44:03.853Z,37
2019-06-26T09:45:04.297Z,37
2019-06-26T09:46:03.925Z,36
2019-06-26T09:47:03.316Z,36
2019-06-26T09:48:03.691Z,36
2019-06-26T09:49:04.108Z,36
2019-06-26T09:50:03.726Z,37
2019-06-26T09:51:04.091Z,37
2019-06-26T09:52:03.511Z,37
2019-06-26T09:53:05.292Z,38
2019-06-26T09:54:04.066Z,38
2019-06-26T09:55:03.565Z,38
2019-06-26T09:56:04.319Z,38
2019-06-26T09:57:03.647Z,38
2019-06-26T09:58:04.014Z,38
2019-06-26T09:59:03.672Z,38
2019-06-26T10:00:04.134Z,39
2019-06-26T10:01:04.184Z,38
2019-06-26T10:02:03.745Z,38
2019-06-26T10:03:04.067Z,38
2019-06-26T10:04:03.554Z,38
2019-06-26T10:05:03.986Z,38
2019-06-26T10:06:03.379Z,38
2019-06-26T10:07:03.715Z,38
2019-06-26T10:08:04.000Z,38
2019-06-26T10:09:04.010Z,38
2019-06-26T10:10:03.601Z,38
2019-06-26T10:11:03.940Z,37
2019-06-26T10:12:03.385Z,37
2019-06-26T10:13:03.828Z,37
2019-06-26T10:14:04.290Z,36
2019-06-26T10:15:03.558Z,37
2019-06-26T10:16:04.128Z,36
2019-06-26T10:17:03.596Z,37
2019-06-26T10:18:03.845Z,36
2019-06-26T10:19:09.866Z,36
2019-06-26T10:20:04.062Z,36
2019-06-26T10:21:03.419Z,36
2019-06-26T10:22:03.775Z,37
2019-06-26T10:23:04.051Z,37
2019-06-26T10:24:03.548Z,37
2019-06-26T10:25:03.931Z,36
2019-06-26T10:26:03.934Z,35
2019-06-26T10:27:03.389Z,34
2019-06-26T10:28:03.705Z,35
2019-06-26T10:29:03.279Z,35
2019-06-26T10:30:03.943Z,35
2019-06-26T10:31:04.236Z,35
2019-06-26T10:32:03.737Z,35
2019-06-26T10:33:03.276Z,35
2019-06-26T10:34:03.613Z,35
2019-06-26T10:35:04.007Z,33
2019-06-26T10:36:03.539Z,33
2019-06-26T10:37:03.860Z,35
2019-06-26T10:38:04.095Z,33
2019-06-26T10:39:03.634Z,30
2019-06-26T10:40:04.442Z,30
2019-06-26T10:41:03.973Z,27
2019-06-26T10:42:03.334Z,26
2019-06-26T10:43:03.664Z,26
2019-06-26T10:44:04.203Z,26
2019-06-26T10:45:03.820Z,25
2019-06-26T10:46:03.427Z,24
2019-06-26T10:47:03.801Z,19
2019-06-26T10:48:04.220Z,23
2019-06-26T10:49:03.516Z,12
2019-06-26T10:50:04.441Z,12
2019-06-26T10:51:03.750Z,12
2019-06-26T10:52:04.014Z,12
2019-06-26T10:53:03.310Z,12
2019-06-26T10:54:03.648Z,12
2019-06-26T10:55:04.060Z,12
2019-06-26T10:56:03.393Z,12
2019-06-26T10:57:03.717Z,12
2019-06-26T10:58:03.970Z,12
2019-06-26T10:59:03.344Z,12
2019-06-26T11:00:08.960Z,12
2019-06-26T11:01:03.538Z,12
2019-06-26T11:02:03.838Z,12
2019-06-26T11:03:04.167Z,12
2019-06-26T11:04:04.211Z,12
2019-06-26T11:05:04.204Z,12
2019-06-26T11:06:03.714Z,12
2019-06-26T11:07:03.632Z,12
2019-06-26T11:08:03.295Z,12
2019-06-26T11:09:03.782Z,12
2019-06-26T11:10:04.453Z,12
2019-06-26T11:11:03.827Z,12
2019-06-26T11:12:04.101Z,12
2019-06-26T11:13:03.398Z,12
2019-06-26T11:14:03.790Z,12
2019-06-26T11:15:04.261Z,12
2019-06-26T11:16:03.719Z,11
2019-06-26T11:17:04.033Z,11
2019-06-26T11:18:03.378Z,11
2019-06-26T11:19:03.721Z,11
2019-06-26T11:20:04.255Z,11
2019-06-26T11:21:03.954Z,11
2019-06-26T11:22:03.356Z,11
2019-06-26T11:23:03.777Z,11
2019-06-26T11:24:04.153Z,11
2019-06-26T11:25:03.550Z,11
2019-06-26T11:26:03.887Z,11
2019-06-26T11:27:04.230Z,11
2019-06-26T11:28:03.596Z,11
2019-06-26T11:29:03.967Z,11
2019-06-26T11:30:03.718Z,11
2019-06-26T11:31:04.210Z,10
2019-06-26T11:32:03.585Z,10
2019-06-26T11:33:04.216Z,10
2019-06-26T11:34:03.533Z,10
2019-06-26T11:35:03.965Z,11
2019-06-26T11:36:03.403Z,11
2019-06-26T11:37:04.579Z,11
2019-06-26T11:38:03.302Z,12
2019-06-26T11:39:03.617Z,12
2019-06-26T11:40:04.131Z,12
2019-06-26T11:41:03.549Z,12
2019-06-26T11:42:03.852Z,12
2019-06-26T11:43:04.173Z,13
2019-06-26T11:44:03.789Z,13
2019-06-26T11:45:04.391Z,13
2019-06-26T11:46:03.799Z,13
2019-06-26T11:47:03.791Z,24
2019-06-26T11:48:04.196Z,23
2019-06-26T11:49:03.543Z,24
2019-06-26T11:50:04.409Z,26
2019-06-26T11:51:03.835Z,28
2019-06-26T11:52:03.288Z,28
2019-06-26T11:53:04.023Z,28
2019-06-26T11:54:03.643Z,31
2019-06-26T11:55:04.332Z,33
2019-06-26T11:56:04.092Z,30
2019-06-26T11:57:03.808Z,31
2019-06-26T11:58:04.244Z,31
2019-06-26T11:59:04.078Z,33
2019-06-26T12:00:03.926Z,33
2019-06-26T12:01:04.007Z,33
2019-06-26T12:02:03.663Z,34
2019-06-26T12:03:04.372Z,35
2019-06-26T12:04:03.723Z,34
2019-06-26T12:05:04.384Z,33
2019-06-26T12:06:15.639Z,33
2019-06-26T12:07:03.877Z,34
2019-06-26T12:08:03.298Z,35
2019-06-26T12:09:03.907Z,35
2019-06-26T12:10:04.543Z,35
2019-06-26T12:11:03.721Z,35
2019-06-26T12:12:04.091Z,35
2019-06-26T12:13:04.293Z,36
2019-06-26T12:14:04.202Z,36
2019-06-26T12:15:03.794Z,36
2019-06-26T12:16:03.357Z,36
2019-06-26T12:17:03.714Z,38
2019-06-26T12:18:03.997Z,38
2019-06-26T12:19:03.368Z,38
2019-06-26T12:20:17.552Z,37
2019-06-26T12:21:04.269Z,37
2019-06-26T12:22:03.624Z,37
2019-06-26T12:23:03.912Z,37
2019-06-26T12:24:03.345Z,36
2019-06-26T12:25:04.028Z,35
2019-06-26T12:26:04.106Z,36
2019-06-26T12:27:03.623Z,36
2019-06-26T12:28:04.049Z,39
2019-06-26T12:29:03.280Z,37
2019-06-26T12:30:03.898Z,38
2019-06-26T12:31:04.199Z,37
2019-06-26T12:32:03.592Z,38
2019-06-26T12:33:04.132Z,38
2019-06-26T12:34:03.391Z,38
2019-06-26T12:35:03.942Z,36
2019-06-26T12:36:04.449Z,36
2019-06-26T12:37:03.911Z,36
2019-06-26T12:38:03.443Z,36
2019-06-26T12:39:04.058Z,37
2019-06-26T12:40:03.689Z,37
2019-06-26T12:41:03.669Z,37
2019-06-26T12:42:03.911Z,37
2019-06-26T12:43:03.259Z,37
2019-06-26T12:44:03.595Z,36
2019-06-26T12:45:04.530Z,37
2019-06-26T12:46:03.989Z,35
2019-06-26T12:47:03.274Z,35
2019-06-26T12:48:03.646Z,35
2019-06-26T12:49:03.943Z,36
2019-06-26T12:50:04.449Z,36
2019-06-26T12:51:03.407Z,36
2019-06-26T12:52:03.734Z,37
2019-06-26T12:53:04.087Z,37
2019-06-26T12:54:03.396Z,38
2019-06-26T12:55:03.906Z,38
2019-06-26T12:56:03.293Z,38
2019-06-26T12:57:03.734Z,40
2019-06-26T12:58:12.892Z,40
2019-06-26T12:59:03.487Z,40
2019-06-26T13:00:04.088Z,40
2019-06-26T13:01:03.598Z,40
2019-06-26T13:02:03.992Z,38
2019-06-26T13:03:03.978Z,38
2019-06-26T13:04:03.310Z,38
2019-06-26T13:05:03.769Z,37
2019-06-26T13:06:04.048Z,38
2019-06-26T13:07:03.610Z,37
2019-06-26T13:08:04.019Z,37
2019-06-26T13:09:03.970Z,37
2019-06-26T13:10:07.176Z,38
2019-06-26T13:11:04.277Z,39
2019-06-26T13:14:03.504Z,38
2019-06-26T13:15:04.234Z,37
2019-06-26T13:16:03.598Z,37
2019-06-26T13:17:03.965Z,38
2019-06-26T13:18:03.386Z,37
2019-06-26T13:19:03.820Z,38
2019-06-26T13:20:04.474Z,38
2019-06-26T13:21:05.144Z,37
2019-06-26T13:22:04.356Z,37
2019-06-26T13:23:03.763Z,37
2019-06-26T13:24:04.200Z,38
2019-06-26T13:25:03.610Z,37
2019-06-26T13:26:04.127Z,34
2019-06-26T13:27:03.506Z,34
2019-06-26T13:28:03.858Z,32
2019-06-26T13:29:04.188Z,32
2019-06-26T13:30:03.924Z,31
2019-06-26T13:31:04.228Z,30
2019-06-26T13:32:03.487Z,30
2019-06-26T13:33:03.883Z,30
2019-06-26T13:34:04.153Z,31
2019-06-26T13:35:03.793Z,33
2019-06-26T13:36:04.127Z,31
2019-06-26T13:37:06.485Z,28
2019-06-26T13:38:04.064Z,28
2019-06-26T13:39:03.697Z,30
2019-06-26T13:40:04.429Z,30
2019-06-26T13:41:04.604Z,30
2019-06-26T13:42:03.365Z,30
2019-06-26T13:43:03.792Z,28
2019-06-26T13:44:03.411Z,26
2019-06-26T13:45:04.033Z,27
2019-06-26T13:46:04.036Z,26
2019-06-26T13:47:04.044Z,24
2019-06-26T13:48:03.799Z,25
2019-06-26T13:49:03.392Z,25
2019-06-26T13:50:04.135Z,24
2019-06-26T13:51:09.123Z,24
2019-06-26T13:52:03.797Z,25
2019-06-26T13:53:04.151Z,26
2019-06-26T13:54:03.714Z,26
2019-06-26T13:55:04.405Z,28
2019-06-26T13:56:03.830Z,26
2019-06-26T13:57:04.210Z,28
2019-06-26T13:58:03.900Z,28
2019-06-26T13:59:07.197Z,30
2019-06-26T14:00:04.392Z,27
2019-06-26T14:01:03.308Z,26
2019-06-26T14:02:03.670Z,28
2019-06-26T14:03:03.960Z,27
2019-06-26T14:04:04.192Z,25
2019-06-26T14:05:03.662Z,26
2019-06-26T14:06:03.903Z,26
2019-06-26T14:07:03.529Z,28
2019-06-26T14:08:03.736Z,28
2019-06-26T14:09:04.180Z,28
2019-06-26T14:10:03.902Z,28
2019-06-26T14:11:05.206Z,29
2019-06-26T14:12:04.144Z,30
2019-06-26T14:13:09.807Z,30
2019-06-26T14:14:03.382Z,30
2019-06-26T14:15:03.886Z,31
2019-06-26T14:16:03.395Z,31
2019-06-26T14:17:03.660Z,32
2019-06-26T14:18:03.935Z,32
2019-06-26T14:19:03.665Z,32